Time;durP1;ratioP1;P1;durP2;ratioP2;P2;SDS_P1;SDS_P2;PMS_P1;PMS_P2;Temp;Humidity;BMP_temperature;BMP_pressure;BME280_temperature;BME280_humidity;BME280_pressure;Samples;Min_cycle;Max_cycle;Signal;HPM_P1;HPM_P2
2022/01/09 00:02:02;;;;;;;22.00;15.95;;;4.20;99.90;;;;;;5036113;28;20128;-68
2022/01/09 00:04:28;;;;;;;24.13;16.05;;;4.20;99.90;;;;;;5035579;28;20064;-69
2022/01/09 00:06:53;;;;;;;19.85;15.00;;;4.20;99.90;;;;;;5055923;28;20049;-67
2022/01/09 00:09:19;;;;;;;19.40;14.90;;;4.20;99.90;;;;;;5035446;28;20049;-70
2022/01/09 00:11:44;;;;;;;18.30;14.07;;;4.20;99.90;;;;;;5033729;28;20124;-67
2022/01/09 00:14:10;;;;;;;20.95;16.02;;;4.20;99.90;;;;;;5030459;28;20064;-68
2022/01/09 00:16:35;;;;;;;20.00;14.05;;;4.20;99.90;;;;;;5036061;28;20045;-69
2022/01/09 00:19:01;;;;;;;18.80;13.50;;;4.20;99.90;;;;;;5029824;28;20063;-69
2022/01/09 00:21:27;;;;;;;20.60;14.70;;;4.20;99.90;;;;;;5061357;28;20076;-69
2022/01/09 00:23:53;;;;;;;18.73;13.63;;;4.20;99.90;;;;;;5036671;28;20052;-68
2022/01/09 00:26:18;;;;;;;20.40;14.70;;;4.30;99.90;;;;;;5033129;28;20369;-69
2022/01/09 00:28:44;;;;;;;23.25;16.38;;;4.20;99.90;;;;;;5029880;28;20056;-68
2022/01/09 00:31:09;;;;;;;23.85;15.15;;;4.20;99.90;;;;;;5034376;28;20406;-69
2022/01/09 00:33:35;;;;;;;22.75;15.95;;;4.20;99.90;;;;;;5046208;28;20085;-68
2022/01/09 00:36:00;;;;;;;22.80;15.68;;;4.20;99.90;;;;;;5035731;28;20049;-68
2022/01/09 00:38:26;;;;;;;24.15;15.73;;;4.20;99.90;;;;;;5046612;28;20049;-67
2022/01/09 00:40:52;;;;;;;19.67;14.95;;;4.20;99.90;;;;;;5052905;28;20053;-69
2022/01/09 00:43:17;;;;;;;23.38;14.45;;;4.20;99.90;;;;;;5025548;28;20049;-68
2022/01/09 00:45:43;;;;;;;21.73;15.98;;;4.20;99.90;;;;;;5034950;28;20045;-67
2022/01/09 00:48:09;;;;;;;21.77;15.45;;;4.20;99.90;;;;;;5035099;28;20056;-69
2022/01/09 00:50:36;;;;;;;22.38;15.25;;;4.20;99.90;;;;;;5035359;28;20048;-67
2022/01/09 00:53:06;;;;;;;20.30;14.68;;;4.20;99.90;;;;;;5036185;28;20103;-70
2022/01/09 00:55:32;;;;;;;25.95;16.48;;;4.20;99.90;;;;;;5035917;28;20042;-68
2022/01/09 00:57:57;;;;;;;22.27;15.57;;;4.20;99.90;;;;;;5036008;28;20045;-69
2022/01/09 01:00:23;;;;;;;28.75;18.00;;;4.20;99.90;;;;;;5034116;28;20365;-67
2022/01/09 01:02:49;;;;;;;26.15;17.25;;;4.20;99.90;;;;;;5034951;28;20045;-68
2022/01/09 01:05:15;;;;;;;29.08;17.42;;;4.20;99.90;;;;;;5035223;28;20048;-68
2022/01/09 01:07:41;;;;;;;20.65;15.50;;;4.20;99.90;;;;;;5055953;28;20071;-68
2022/01/09 01:10:07;;;;;;;26.48;17.45;;;4.20;99.90;;;;;;5055110;28;20057;-67
2022/01/09 01:12:33;;;;;;;26.85;18.05;;;4.20;99.90;;;;;;5055829;28;20053;-67
2022/01/09 01:14:59;;;;;;;30.73;18.60;;;4.30;99.90;;;;;;5020378;28;20119;-69
2022/01/09 01:17:25;;;;;;;27.27;17.65;;;4.20;99.90;;;;;;5046674;28;20048;-68
2022/01/09 01:19:54;;;;;;;30.60;18.60;;;4.20;99.90;;;;;;5039693;28;20063;-69
2022/01/09 01:22:20;;;;;;;31.33;19.45;;;4.30;99.90;;;;;;5034802;28;20128;-67
2022/01/09 01:24:46;;;;;;;25.65;18.55;;;4.30;99.90;;;;;;5053808;28;20110;-68
2022/01/09 01:27:13;;;;;;;33.63;20.05;;;4.50;99.90;;;;;;5055058;28;20469;-68
2022/01/09 01:29:39;;;;;;;27.38;19.30;;;4.20;99.90;;;;;;5058630;28;20381;-69
2022/01/09 01:32:05;;;;;;;31.73;20.38;;;4.20;99.90;;;;;;5017638;28;20053;-69
2022/01/09 01:34:32;;;;;;;31.30;20.33;;;4.20;99.90;;;;;;5035273;28;20045;-69
2022/01/09 01:36:58;;;;;;;38.10;22.63;;;4.20;99.90;;;;;;5017963;28;20151;-69
2022/01/09 01:39:23;;;;;;;37.70;22.27;;;4.20;99.90;;;;;;5017988;28;20136;-70
2022/01/09 01:41:49;;;;;;;36.00;22.08;;;4.20;99.90;;;;;;5018088;28;20045;-68
2022/01/09 01:44:15;;;;;;;37.88;22.17;;;4.20;99.90;;;;;;5035004;28;20061;-70
2022/01/09 01:46:41;;;;;;;37.10;22.73;;;4.20;99.90;;;;;;5024924;28;20050;-70
2022/01/09 01:49:10;;;;;;;44.13;23.15;;;4.20;99.90;;;;;;5053379;28;20041;-69
2022/01/09 01:51:42;;;;;;;42.22;23.15;;;4.20;99.90;;;;;;5047125;28;20107;-70
2022/01/09 01:54:12;;;;;;;42.40;23.10;;;4.20;99.90;;;;;;5033501;28;20049;-67
2022/01/09 01:56:39;;;;;;;45.22;24.38;;;4.20;99.90;;;;;;5048594;28;20045;-68
2022/01/09 01:59:05;;;;;;;47.90;24.50;;;4.20;99.90;;;;;;5054565;28;20083;-68
2022/01/09 02:01:31;;;;;;;35.83;22.88;;;4.20;99.90;;;;;;5033854;28;20524;-69
2022/01/09 02:03:57;;;;;;;46.13;24.40;;;4.20;99.90;;;;;;5037272;28;20084;-67
2022/01/09 02:06:23;;;;;;;45.55;24.42;;;4.30;99.90;;;;;;5054896;28;20465;-68
2022/01/09 02:08:49;;;;;;;60.63;26.08;;;4.30;99.90;;;;;;5054596;28;20075;-68
2022/01/09 02:11:14;;;;;;;44.10;24.35;;;4.30;99.90;;;;;;5037193;28;20140;-68
2022/01/09 02:13:41;;;;;;;47.60;25.13;;;4.30;99.90;;;;;;5054738;28;20381;-70
2022/01/09 02:16:16;;;;;;;46.60;24.38;;;4.30;99.90;;;;;;5054580;28;20056;-69
2022/01/09 02:18:43;;;;;;;51.40;25.27;;;4.30;99.90;;;;;;5034210;28;20060;-68
2022/01/09 02:21:10;;;;;;;51.92;25.40;;;4.30;99.90;;;;;;5061463;28;20048;-68
2022/01/09 02:23:38;;;;;;;50.83;25.27;;;4.30;99.90;;;;;;5023089;28;20041;-70
2022/01/09 02:26:03;;;;;;;53.83;25.63;;;4.30;99.90;;;;;;5050394;28;20346;-69
2022/01/09 02:28:29;;;;;;;56.47;26.75;;;4.30;99.90;;;;;;5033435;28;20053;-69
2022/01/09 02:30:55;;;;;;;54.45;27.05;;;4.30;99.90;;;;;;5031919;28;20372;-68
2022/01/09 02:33:21;;;;;;;60.20;28.38;;;4.30;99.90;;;;;;5054575;28;20099;-67
2022/01/09 02:35:53;;;;;;;58.35;27.58;;;4.30;99.90;;;;;;5035390;28;20049;-69
2022/01/09 02:38:19;;;;;;;68.65;29.30;;;4.30;99.90;;;;;;5054626;28;20045;-71
2022/01/09 02:40:50;;;;;;;91.38;30.55;;;4.40;99.90;;;;;;5036334;28;20058;-70
2022/01/09 02:43:16;;;;;;;54.75;26.52;;;4.40;99.90;;;;;;5033489;28;20045;-70
2022/01/09 02:45:43;;;;;;;79.38;28.45;;;4.40;99.90;;;;;;5051214;28;20106;-68
2022/01/09 02:48:10;;;;;;;66.60;26.63;;;4.40;99.90;;;;;;5037356;28;20106;-69
2022/01/09 02:50:40;;;;;;;62.38;26.08;;;4.40;99.90;;;;;;5040133;28;20368;-68
2022/01/09 02:53:19;;;;;;;56.85;25.73;;;4.40;99.90;;;;;;5034331;28;20053;-67
2022/01/09 02:55:45;;;;;;;52.35;24.75;;;4.40;99.90;;;;;;5036418;28;20084;-69
2022/01/09 02:58:11;;;;;;;50.13;21.50;;;4.40;99.90;;;;;;5056514;28;20044;-68
2022/01/09 03:00:39;;;;;;;50.80;22.05;;;4.50;99.90;;;;;;5058167;28;20048;-70
2022/01/09 03:03:05;;;;;;;62.70;23.92;;;4.50;99.90;;;;;;5037300;28;20381;-68
2022/01/09 03:05:31;;;;;;;59.38;22.15;;;4.50;99.90;;;;;;5057794;28;20119;-67
2022/01/09 03:07:57;;;;;;;52.97;23.20;;;4.60;99.90;;;;;;5036778;28;20041;-68
2022/01/09 03:10:23;;;;;;;63.60;24.25;;;4.60;99.90;;;;;;5057748;28;20232;-69
2022/01/09 03:12:50;;;;;;;66.13;22.60;;;4.60;99.90;;;;;;5057776;28;20041;-68
2022/01/09 03:15:17;;;;;;;66.38;23.00;;;4.60;99.90;;;;;;5057649;28;20041;-68
2022/01/09 03:17:44;;;;;;;50.35;21.20;;;4.60;99.90;;;;;;5057753;28;20053;-68
2022/01/09 03:20:13;;;;;;;41.40;19.38;;;4.60;99.90;;;;;;5044687;28;20061;-69
2022/01/09 03:22:38;;;;;;;68.18;22.55;;;4.60;99.90;;;;;;5051566;28;20044;-70
2022/01/09 03:25:05;;;;;;;47.67;19.02;;;4.70;99.90;;;;;;5036526;28;20060;-68
2022/01/09 03:27:30;;;;;;;44.05;17.73;;;4.70;99.90;;;;;;5051376;28;20052;-68
2022/01/09 03:29:56;;;;;;;55.15;19.23;;;4.70;99.90;;;;;;5057543;28;20055;-68
2022/01/09 03:32:21;;;;;;;68.75;19.60;;;4.70;99.90;;;;;;5037224;28;20042;-67
2022/01/09 03:34:47;;;;;;;55.92;18.98;;;4.70;99.90;;;;;;5040044;28;20469;-69
2022/01/09 03:37:12;;;;;;;62.28;19.20;;;4.70;99.90;;;;;;5036876;28;20057;-70
2022/01/09 03:39:38;;;;;;;64.05;16.92;;;4.80;99.90;;;;;;5040310;28;20045;-68
2022/01/09 03:42:04;;;;;;;45.88;16.05;;;4.80;99.90;;;;;;5039358;28;20134;-67
2022/01/09 03:44:30;;;;;;;48.10;15.95;;;4.80;99.90;;;;;;5057283;28;20480;-68
2022/01/09 03:46:56;;;;;;;47.47;12.40;;;4.80;99.90;;;;;;5039905;28;20076;-69
2022/01/09 03:49:23;;;;;;;38.35;11.85;;;4.90;99.90;;;;;;5058274;28;20049;-68
2022/01/09 03:51:51;;;;;;;53.70;11.50;;;4.90;99.90;;;;;;5056783;28;20052;-68
2022/01/09 03:54:21;;;;;;;48.60;9.02;;;4.90;99.90;;;;;;5036112;28;20063;-67
2022/01/09 03:56:48;;;;;;;50.20;8.18;;;5.00;99.90;;;;;;5051803;28;20048;-67
2022/01/09 03:59:15;;;;;;;46.95;8.50;;;5.10;99.90;;;;;;5024076;28;20084;-67
2022/01/09 04:01:40;;;;;;;58.13;9.05;;;5.10;99.90;;;;;;5056969;28;20052;-68
2022/01/09 04:04:06;;;;;;;46.75;6.88;;;5.10;99.90;;;;;;5036418;28;20121;-68
2022/01/09 04:06:31;;;;;;;63.13;8.50;;;5.20;99.90;;;;;;5051522;28;20080;-66
2022/01/09 04:09:06;;;;;;;61.65;7.43;;;5.30;99.90;;;;;;5035034;28;20099;-66
2022/01/09 04:11:36;;;;;;;67.28;8.48;;;5.30;99.90;;;;;;5052594;28;20045;-67
2022/01/09 04:14:02;;;;;;;76.65;7.78;;;5.30;99.90;;;;;;5035884;28;20045;-66
2022/01/09 04:16:27;;;;;;;68.25;8.13;;;5.40;99.90;;;;;;5035785;28;20454;-67
2022/01/09 04:18:53;;;;;;;69.38;8.80;;;5.40;99.90;;;;;;5029847;28;20083;-68
2022/01/09 04:21:19;;;;;;;78.20;8.73;;;5.50;99.90;;;;;;5028896;28;20041;-70
2022/01/09 04:23:45;;;;;;;79.93;8.80;;;5.60;99.90;;;;;;5026479;28;20049;-66
2022/01/09 04:26:11;;;;;;;88.03;8.65;;;5.60;99.90;;;;;;5035778;28;20048;-67
2022/01/09 04:28:36;;;;;;;80.78;8.38;;;5.70;99.90;;;;;;5035938;28;20437;-69
2022/01/09 04:31:02;;;;;;;71.95;7.65;;;5.70;99.90;;;;;;5052499;28;20055;-67
2022/01/09 04:33:27;;;;;;;87.03;8.07;;;5.70;99.90;;;;;;5035698;28;20350;-69
2022/01/09 04:35:53;;;;;;;58.95;7.68;;;5.70;99.90;;;;;;5051805;28;20063;-68
2022/01/09 04:38:18;;;;;;;68.47;6.88;;;5.70;99.90;;;;;;5035108;28;20049;-67
2022/01/09 04:40:44;;;;;;;66.50;6.43;;;5.70;99.90;;;;;;5050553;28;20052;-67
2022/01/09 04:43:12;;;;;;;58.80;7.18;;;5.80;99.90;;;;;;5035482;28;20054;-69
2022/01/09 04:45:38;;;;;;;68.63;6.75;;;5.80;99.90;;;;;;5051482;28;20056;-67
2022/01/09 04:48:07;;;;;;;66.68;7.88;;;5.80;99.90;;;;;;5040692;28;20045;-67
2022/01/09 04:50:35;;;;;;;72.60;7.95;;;5.80;99.90;;;;;;5044460;28;20405;-68
2022/01/09 04:53:07;;;;;;;71.20;7.22;;;5.90;99.90;;;;;;5016911;28;20081;-69
2022/01/09 04:55:35;;;;;;;75.45;7.07;;;5.80;99.90;;;;;;5052850;28;20045;-68
2022/01/09 04:58:00;;;;;;;59.83;6.55;;;5.80;99.90;;;;;;5035256;28;20092;-68
2022/01/09 05:00:26;;;;;;;74.05;8.00;;;5.80;99.90;;;;;;5035132;28;20072;-68
2022/01/09 05:02:52;;;;;;;69.25;6.50;;;5.80;99.90;;;;;;5034579;28;20052;-67
2022/01/09 05:05:19;;;;;;;51.47;6.70;;;5.70;99.90;;;;;;5035298;28;20437;-67
2022/01/09 05:07:45;;;;;;;51.13;6.32;;;5.80;99.90;;;;;;5034506;28;20049;-68
2022/01/09 05:10:11;;;;;;;52.70;6.90;;;5.80;99.90;;;;;;5036157;28;20057;-68
2022/01/09 05:12:37;;;;;;;46.42;6.05;;;5.80;99.90;;;;;;5055737;28;20053;-68
2022/01/09 05:15:05;;;;;;;44.55;5.88;;;5.80;99.90;;;;;;5034693;28;20099;-68
2022/01/09 05:17:31;;;;;;;54.38;6.68;;;5.80;99.90;;;;;;5030252;28;20064;-67
2022/01/09 05:19:57;;;;;;;51.45;6.65;;;5.80;99.90;;;;;;5066355;28;20053;-66
2022/01/09 05:22:28;;;;;;;36.67;5.30;;;5.80;99.90;;;;;;5051871;28;20116;-67
2022/01/09 05:24:54;;;;;;;45.05;5.05;;;5.80;99.90;;;;;;5033529;28;20128;-67
2022/01/09 05:27:21;;;;;;;44.08;6.07;;;5.80;99.90;;;;;;5047842;28;20053;-66
2022/01/09 05:29:47;;;;;;;41.53;4.88;;;5.80;99.90;;;;;;5055157;28;20175;-68
2022/01/09 05:32:13;;;;;;;42.58;5.15;;;5.80;99.90;;;;;;5034569;28;20477;-67
2022/01/09 05:34:38;;;;;;;42.45;5.68;;;5.80;99.90;;;;;;5037576;28;20099;-68
2022/01/09 05:37:05;;;;;;;53.17;5.55;;;5.70;99.90;;;;;;5055269;28;20048;-68
2022/01/09 05:39:33;;;;;;;50.22;6.38;;;5.70;99.90;;;;;;5034555;28;20457;-68
2022/01/09 05:42:01;;;;;;;31.90;5.20;;;5.70;99.90;;;;;;5030269;28;20114;-68
2022/01/09 05:44:26;;;;;;;36.25;4.88;;;5.70;99.90;;;;;;5033770;28;20053;-66
2022/01/09 05:46:52;;;;;;;42.38;5.32;;;5.70;99.90;;;;;;5030460;28;20045;-68
2022/01/09 05:49:18;;;;;;;38.95;5.90;;;5.60;99.90;;;;;;5035379;28;20049;-67
2022/01/09 05:51:43;;;;;;;43.67;5.00;;;5.60;99.90;;;;;;5047733;28;20049;-68
2022/01/09 05:54:09;;;;;;;39.45;5.25;;;5.60;99.90;;;;;;5034141;28;20049;-67
2022/01/09 05:56:34;;;;;;;36.47;5.38;;;5.60;99.90;;;;;;5029860;28;20056;-68
2022/01/09 05:59:00;;;;;;;40.65;5.75;;;5.60;99.90;;;;;;5054548;28;20041;-68
2022/01/09 06:01:26;;;;;;;34.78;3.92;;;5.50;99.90;;;;;;5037289;28;20338;-68
2022/01/09 06:03:51;;;;;;;35.53;4.55;;;5.60;99.90;;;;;;5018346;28;20080;-67
2022/01/09 06:06:17;;;;;;;37.75;5.88;;;5.60;99.90;;;;;;5017589;28;20050;-68
2022/01/09 06:08:43;;;;;;;39.65;5.22;;;5.50;99.90;;;;;;5054290;28;20052;-68
2022/01/09 06:11:08;;;;;;;33.53;4.20;;;5.50;99.90;;;;;;5054956;28;20057;-68
2022/01/09 06:13:34;;;;;;;41.75;5.20;;;5.50;99.90;;;;;;5033871;28;20485;-68
2022/01/09 06:15:59;;;;;;;31.30;4.65;;;5.50;99.90;;;;;;5046540;28;20056;-68
2022/01/09 06:18:25;;;;;;;43.10;4.93;;;5.50;99.90;;;;;;5039005;28;20033;-69
2022/01/09 06:20:51;;;;;;;41.55;4.65;;;5.50;99.90;;;;;;5016087;28;20469;-66
2022/01/09 06:23:20;;;;;;;40.17;4.68;;;5.40;99.90;;;;;;5032561;28;20049;-70
2022/01/09 06:25:47;;;;;;;25.98;5.07;;;5.50;99.90;;;;;;5029743;28;20071;-68
2022/01/09 06:28:13;;;;;;;37.83;5.35;;;5.40;99.90;;;;;;5033525;28;20568;-67
2022/01/09 06:30:40;;;;;;;34.13;4.68;;;5.40;99.90;;;;;;5047432;28;20053;-68
2022/01/09 06:33:05;;;;;;;29.38;4.22;;;5.40;99.90;;;;;;5036422;28;20465;-68
2022/01/09 06:35:31;;;;;;;22.73;4.00;;;5.30;99.90;;;;;;5051678;28;20049;-67
2022/01/09 06:37:56;;;;;;;26.48;3.72;;;5.30;99.90;;;;;;5037676;28;20072;-68
2022/01/09 06:40:22;;;;;;;31.90;4.57;;;5.30;99.90;;;;;;5017343;28;20071;-67
2022/01/09 06:42:47;;;;;;;35.10;4.68;;;5.30;99.90;;;;;;5058394;28;20500;-70
2022/01/09 06:45:13;;;;;;;24.27;3.97;;;5.20;99.90;;;;;;5052690;28;20109;-69
2022/01/09 06:47:39;;;;;;;35.67;4.38;;;5.30;99.90;;;;;;5021710;28;20120;-69
2022/01/09 06:50:06;;;;;;;23.23;3.92;;;5.20;99.90;;;;;;5038553;28;20123;-69
2022/01/09 06:52:31;;;;;;;31.55;4.25;;;5.20;99.90;;;;;;5038360;28;20144;-67
2022/01/09 06:54:57;;;;;;;28.02;4.72;;;5.40;99.90;;;;;;5019920;28;20125;-68
2022/01/09 06:57:23;;;;;;;32.38;4.25;;;5.20;99.90;;;;;;5036202;28;20489;-68
2022/01/09 06:59:48;;;;;;;39.22;4.13;;;5.20;99.90;;;;;;5033642;28;20060;-67
2022/01/09 07:02:14;;;;;;;31.85;3.80;;;5.10;99.90;;;;;;5058021;28;20040;-66
2022/01/09 07:04:39;;;;;;;23.05;3.58;;;5.20;99.90;;;;;;5058196;28;20420;-67
2022/01/09 07:07:05;;;;;;;22.95;4.38;;;5.10;99.90;;;;;;5037618;28;20080;-67
2022/01/09 07:09:30;;;;;;;26.92;4.10;;;5.10;99.90;;;;;;5033495;28;20065;-67
2022/01/09 07:11:56;;;;;;;34.38;4.35;;;5.10;99.90;;;;;;5057823;28;20372;-68
2022/01/09 07:14:21;;;;;;;34.78;4.90;;;5.10;99.90;;;;;;5046344;28;20054;-67
2022/01/09 07:16:47;;;;;;;26.35;4.38;;;5.10;99.90;;;;;;5038926;28;20409;-68
2022/01/09 07:19:13;;;;;;;27.27;4.45;;;5.10;99.90;;;;;;5037646;28;20064;-67
2022/01/09 07:21:38;;;;;;;37.10;4.90;;;5.10;99.90;;;;;;5004588;28;20045;-66
2022/01/09 07:24:04;;;;;;;29.60;4.03;;;5.10;99.90;;;;;;5029405;28;20061;-67
2022/01/09 07:26:30;;;;;;;31.65;3.88;;;5.10;99.90;;;;;;5057171;28;20049;-68
2022/01/09 07:28:56;;;;;;;42.35;4.68;;;5.10;99.90;;;;;;5057393;28;20056;-67
2022/01/09 07:31:22;;;;;;;37.03;4.15;;;5.10;99.90;;;;;;5036517;28;20049;-68
2022/01/09 07:33:48;;;;;;;22.25;3.40;;;5.10;99.90;;;;;;5049560;28;20061;-69
2022/01/09 07:36:15;;;;;;;31.60;4.95;;;5.10;99.90;;;;;;5057444;28;20049;-68
2022/01/09 07:38:40;;;;;;;39.17;4.20;;;5.10;99.90;;;;;;5056037;28;20422;-67
2022/01/09 07:41:06;;;;;;;30.73;3.90;;;5.00;99.90;;;;;;4998552;28;20144;-68
2022/01/09 07:43:31;;;;;;;32.95;4.20;;;5.00;99.90;;;;;;5002536;28;20116;-70
2022/01/09 07:45:57;;;;;;;31.17;4.25;;;5.00;99.90;;;;;;5004787;28;20050;-69
2022/01/09 07:48:23;;;;;;;26.77;3.70;;;5.00;99.90;;;;;;5010862;28;20061;-69
2022/01/09 07:50:49;;;;;;;38.75;4.30;;;4.90;99.90;;;;;;5014315;28;20390;-70
2022/01/09 07:53:17;;;;;;;25.33;3.50;;;4.90;99.90;;;;;;4998094;28;20050;-69
2022/01/09 07:55:43;;;;;;;26.50;4.20;;;4.90;99.90;;;;;;5023603;28;20060;-70
2022/01/09 07:58:08;;;;;;;26.98;3.30;;;4.90;99.90;;;;;;5007337;28;20132;-68
2022/01/09 08:00:34;;;;;;;23.65;3.63;;;4.90;99.90;;;;;;5006950;28;20072;-69
2022/01/09 08:03:01;;;;;;;28.38;4.15;;;4.90;99.90;;;;;;5004790;28;20053;-69
2022/01/09 08:05:26;;;;;;;31.25;3.80;;;4.80;99.90;;;;;;4982322;28;20232;-69
2022/01/09 08:07:52;;;;;;;22.95;3.58;;;4.80;99.90;;;;;;5015186;28;20519;-67
2022/01/09 08:10:17;;;;;;;17.17;3.22;;;4.80;99.90;;;;;;4998420;28;20058;-68
2022/01/09 08:12:44;;;;;;;27.05;3.80;;;4.80;99.90;;;;;;5043523;28;20049;-68
2022/01/09 08:15:10;;;;;;;19.88;3.30;;;4.80;99.90;;;;;;5036287;28;20068;-67
2022/01/09 08:17:35;;;;;;;27.30;3.67;;;4.80;99.90;;;;;;5048765;28;20380;-67
2022/01/09 08:20:01;;;;;;;21.23;3.80;;;4.80;99.90;;;;;;5022886;28;20052;-70
2022/01/09 08:22:29;;;;;;;23.33;3.38;;;4.80;99.90;;;;;;5059340;28;20107;-68
2022/01/09 08:24:54;;;;;;;19.55;3.90;;;4.80;99.90;;;;;;5064262;28;20520;-68
2022/01/09 08:27:20;;;;;;;12.70;2.72;;;4.80;99.90;;;;;;5060926;28;20116;-68
2022/01/09 08:29:46;;;;;;;23.73;4.13;;;4.80;99.90;;;;;;5053706;28;20364;-70
2022/01/09 08:32:13;;;;;;;16.50;3.03;;;4.80;99.90;;;;;;5042840;28;20434;-68
2022/01/09 08:34:39;;;;;;;12.57;2.53;;;4.80;99.90;;;;;;5056283;28;20424;-68
2022/01/09 08:37:09;;;;;;;22.40;3.00;;;4.80;99.90;;;;;;5035489;28;20053;-68
2022/01/09 08:39:35;;;;;;;19.38;2.90;;;4.80;99.90;;;;;;5051276;28;20045;-68
2022/01/09 08:42:00;;;;;;;24.60;3.05;;;4.80;99.90;;;;;;5054197;28;20103;-68
2022/01/09 08:44:26;;;;;;;21.25;2.90;;;4.70;99.90;;;;;;5051721;28;20037;-70
2022/01/09 08:46:51;;;;;;;16.13;2.53;;;4.80;99.90;;;;;;5046333;28;20037;-69
2022/01/09 08:49:17;;;;;;;15.35;2.42;;;4.80;99.90;;;;;;5045989;28;20052;-69
2022/01/09 08:51:43;;;;;;;17.45;2.95;;;4.70;99.90;;;;;;5029792;28;20044;-67
2022/01/09 08:54:08;;;;;;;13.52;2.88;;;4.80;99.90;;;;;;5044055;28;20045;-66
2022/01/09 08:56:36;;;;;;;15.10;2.50;;;4.80;99.90;;;;;;5059562;28;20059;-68
2022/01/09 08:59:01;;;;;;;14.48;2.95;;;4.80;99.90;;;;;;5046979;28;20063;-69
2022/01/09 09:01:28;;;;;;;15.13;3.00;;;4.90;99.90;;;;;;5047593;28;20457;-67
2022/01/09 09:03:53;;;;;;;17.23;2.72;;;4.90;99.90;;;;;;5048585;28;20438;-69
2022/01/09 09:06:19;;;;;;;16.77;3.15;;;4.90;99.90;;;;;;5058336;28;20123;-69
2022/01/09 09:08:44;;;;;;;23.13;3.58;;;4.90;99.90;;;;;;5040623;28;20445;-68
2022/01/09 09:11:11;;;;;;;16.27;2.55;;;4.90;99.90;;;;;;5064716;28;20078;-68
2022/01/09 09:13:37;;;;;;;16.38;3.78;;;5.00;99.90;;;;;;5048942;28;20421;-66
2022/01/09 09:16:03;;;;;;;19.42;3.35;;;5.00;99.90;;;;;;5047159;28;20120;-68
2022/01/09 09:18:29;;;;;;;18.25;4.03;;;5.00;99.90;;;;;;5064620;28;20090;-68
2022/01/09 09:20:56;;;;;;;27.85;4.20;;;5.00;99.90;;;;;;5048418;28;20044;-69
2022/01/09 09:23:21;;;;;;;18.65;4.80;;;5.00;99.90;;;;;;5047120;28;20126;-67
2022/01/09 09:25:47;;;;;;;19.50;5.05;;;5.00;99.90;;;;;;5064415;28;20048;-68
2022/01/09 09:28:14;;;;;;;28.50;5.38;;;5.00;99.90;;;;;;5048382;28;20041;-67
2022/01/09 09:30:39;;;;;;;22.25;5.55;;;5.00;99.90;;;;;;5043993;28;20439;-68
2022/01/09 09:33:05;;;;;;;24.45;6.22;;;5.10;99.90;;;;;;5047764;28;20040;-69
2022/01/09 09:35:34;;;;;;;31.77;5.00;;;5.10;99.90;;;;;;5065573;28;20059;-70
2022/01/09 09:38:00;;;;;;;19.92;3.17;;;5.10;99.90;;;;;;5043755;28;20049;-68
2022/01/09 09:40:26;;;;;;;17.13;3.22;;;5.10;99.90;;;;;;5064686;28;20052;-69
2022/01/09 09:42:53;;;;;;;19.15;3.45;;;5.10;99.90;;;;;;5047922;28;20040;-67
2022/01/09 09:45:19;;;;;;;21.35;3.38;;;5.10;99.90;;;;;;5063552;28;20045;-67
2022/01/09 09:47:44;;;;;;;16.02;3.17;;;5.10;99.90;;;;;;5064891;28;20048;-67
2022/01/09 09:50:13;;;;;;;14.98;3.08;;;5.10;99.90;;;;;;5065208;28;20347;-69
2022/01/09 09:52:41;;;;;;;20.58;4.55;;;5.20;99.90;;;;;;5046031;28;20037;-70
2022/01/09 09:55:06;;;;;;;21.08;3.47;;;5.20;99.90;;;;;;5064473;28;20044;-67
2022/01/09 09:57:32;;;;;;;18.13;3.47;;;5.20;99.90;;;;;;5049241;28;20119;-67
2022/01/09 10:00:08;;;;;;;16.73;3.40;;;5.20;99.90;;;;;;5060346;28;20068;-68
2022/01/09 10:02:42;;;;;;;28.02;3.35;;;5.20;99.90;;;;;;5062737;28;20047;-69
2022/01/09 10:05:08;;;;;;;15.73;3.58;;;5.20;99.90;;;;;;5028654;28;20044;-70
2022/01/09 10:07:34;;;;;;;21.35;3.08;;;5.20;99.90;;;;;;5063331;28;20384;-67
2022/01/09 10:10:02;;;;;;;19.92;3.15;;;5.10;99.90;;;;;;5042846;28;20045;-67
2022/01/09 10:12:32;;;;;;;16.95;3.17;;;5.20;99.90;;;;;;5063108;28;20036;-67
2022/01/09 10:15:01;;;;;;;15.02;2.80;;;5.20;99.90;;;;;;5044663;28;20407;-68
2022/01/09 10:17:27;;;;;;;22.30;3.05;;;5.20;99.90;;;;;;5043632;28;20037;-68
2022/01/09 10:20:03;;;;;;;17.67;3.50;;;5.30;99.90;;;;;;5040359;28;20365;-67
2022/01/09 10:22:44;;;;;;;15.98;2.28;;;5.30;99.90;;;;;;5038193;28;20037;-67
2022/01/09 10:25:30;;;;;;;16.63;2.72;;;5.40;99.90;;;;;;5043122;28;20107;-65
2022/01/09 10:28:17;;;;;;;15.65;2.78;;;5.40;99.90;;;;;;5057972;28;20166;-69
2022/01/09 10:30:51;;;;;;;12.45;2.25;;;5.40;99.90;;;;;;5017143;28;20374;-66
2022/01/09 10:33:25;;;;;;;14.57;2.30;;;5.30;99.90;;;;;;5017317;28;20046;-66
2022/01/09 10:35:52;;;;;;;11.88;2.45;;;5.30;99.90;;;;;;5027775;28;20417;-70
2022/01/09 10:38:19;;;;;;;16.77;2.40;;;5.40;99.90;;;;;;5054625;28;20053;-68
2022/01/09 10:40:58;;;;;;;15.80;2.70;;;5.30;99.90;;;;;;5054408;28;20449;-67
2022/01/09 10:43:40;;;;;;;10.05;2.20;;;5.40;99.90;;;;;;5054476;28;20053;-68
2022/01/09 10:46:06;;;;;;;17.20;2.33;;;5.30;99.90;;;;;;5036802;28;20453;-69
2022/01/09 10:48:32;;;;;;;13.23;2.85;;;5.30;99.90;;;;;;5037250;28;20052;-68
2022/01/09 10:50:59;;;;;;;15.02;2.60;;;5.40;99.90;;;;;;5036690;28;20075;-68
2022/01/09 10:53:30;;;;;;;17.55;2.92;;;5.30;99.90;;;;;;5054364;28;20090;-68
2022/01/09 10:56:20;;;;;;;14.38;2.22;;;5.30;99.90;;;;;;5055855;28;20115;-69
2022/01/09 10:58:50;;;;;;;17.02;2.35;;;5.30;99.90;;;;;;5062671;28;20060;-67
2022/01/09 11:01:33;;;;;;;11.18;2.42;;;5.30;99.90;;;;;;5048915;28;20053;-68
2022/01/09 11:04:00;;;;;;;15.77;2.28;;;5.30;99.90;;;;;;5039020;28;20103;-66
2022/01/09 11:06:31;;;;;;;15.55;2.83;;;5.30;99.90;;;;;;5035003;28;20056;-66
2022/01/09 11:08:57;;;;;;;14.50;2.58;;;5.30;99.90;;;;;;5051411;28;20052;-68
2022/01/09 11:11:28;;;;;;;11.55;2.20;;;5.30;99.90;;;;;;5053807;28;20178;-69
2022/01/09 11:13:55;;;;;;;13.63;2.50;;;5.40;99.90;;;;;;5054420;28;20061;-68
2022/01/09 11:16:32;;;;;;;8.98;2.47;;;5.40;99.90;;;;;;5033001;28;20093;-69
2022/01/09 11:19:01;;;;;;;18.67;2.53;;;5.50;99.90;;;;;;5054981;28;20060;-66
2022/01/09 11:21:27;;;;;;;10.93;2.50;;;5.60;99.90;;;;;;5035798;28;20111;-67
2022/01/09 11:24:11;;;;;;;8.43;2.20;;;5.70;99.90;;;;;;5058150;28;20081;-66
2022/01/09 11:26:47;;;;;;;13.68;2.20;;;5.70;99.90;;;;;;5038896;28;20071;-66
2022/01/09 11:29:19;;;;;;;14.90;2.67;;;5.70;99.90;;;;;;5061964;28;20099;-67
2022/01/09 11:31:59;;;;;;;15.43;2.60;;;6.00;99.90;;;;;;5036483;28;20085;-66
2022/01/09 11:34:49;;;;;;;16.73;3.40;;;5.80;99.90;;;;;;5052189;28;20049;-66
2022/01/09 11:37:50;;;;;;;15.57;2.72;;;5.90;99.90;;;;;;5057205;28;20136;-65
2022/01/09 11:40:23;;;;;;;16.02;2.30;;;5.90;99.90;;;;;;5036386;28;20323;-67
2022/01/09 11:43:04;;;;;;;16.15;2.83;;;6.00;99.90;;;;;;5065777;28;20044;-67
2022/01/09 11:45:40;;;;;;;21.95;3.15;;;6.10;99.90;;;;;;5041272;28;20559;-67
2022/01/09 11:48:06;;;;;;;13.57;2.60;;;6.20;99.90;;;;;;5057081;28;20118;-66
2022/01/09 11:50:33;;;;;;;15.52;2.65;;;6.20;99.90;;;;;;5057427;28;20092;-67
2022/01/09 11:53:00;;;;;;;12.77;3.70;;;6.30;99.90;;;;;;5036413;28;20053;-68
2022/01/09 11:55:44;;;;;;;14.93;2.63;;;6.30;99.90;;;;;;5049419;28;20048;-66
2022/01/09 11:58:11;;;;;;;14.10;3.05;;;6.40;99.90;;;;;;5035685;28;20136;-67
2022/01/09 12:00:42;;;;;;;15.73;2.80;;;6.40;99.90;;;;;;5033980;28;20044;-69
2022/01/09 12:03:26;;;;;;;18.95;2.75;;;6.40;99.90;;;;;;5045756;28;20053;-66
2022/01/09 12:06:06;;;;;;;20.27;3.33;;;6.50;99.90;;;;;;5054464;28;20052;-69
2022/01/09 12:08:53;;;;;;;18.45;2.80;;;6.50;99.90;;;;;;5036106;28;20045;-70
2022/01/09 12:11:19;;;;;;;15.02;2.70;;;6.60;99.90;;;;;;5019423;28;20064;-69
2022/01/09 12:13:47;;;;;;;14.05;2.72;;;6.70;99.90;;;;;;5036659;28;20045;-66
2022/01/09 12:16:49;;;;;;;14.35;2.53;;;6.80;99.90;;;;;;5037159;28;20377;-68
2022/01/09 12:20:09;;;;;;;14.20;3.08;;;6.90;99.90;;;;;;5043915;28;20464;-66
2022/01/09 12:22:45;;;;;;;11.90;2.60;;;7.00;99.90;;;;;;4985352;28;20369;-67
2022/01/09 12:25:32;;;;;;;18.25;2.80;;;7.10;99.90;;;;;;5035254;28;20056;-67
2022/01/09 12:28:17;;;;;;;12.93;2.40;;;7.20;99.90;;;;;;5054093;28;20473;-65
2022/01/09 12:30:52;;;;;;;21.40;2.90;;;7.20;99.90;;;;;;5053108;28;20056;-67
2022/01/09 12:33:31;;;;;;;15.77;2.80;;;7.20;99.90;;;;;;5037974;28;20091;-69
2022/01/09 12:36:00;;;;;;;9.05;2.35;;;7.20;99.90;;;;;;5061494;28;20041;-68
2022/01/09 12:38:28;;;;;;;17.40;2.72;;;7.20;99.90;;;;;;5056132;28;20407;-67
2022/01/09 12:41:00;;;;;;;12.80;3.33;;;7.30;99.90;;;;;;5050968;28;20075;-67
2022/01/09 12:43:27;;;;;;;16.90;2.92;;;7.20;99.90;;;;;;5034590;28;20084;-68
2022/01/09 12:45:53;;;;;;;12.55;2.47;;;7.10;99.90;;;;;;5056318;28;20057;-66
2022/01/09 12:48:22;;;;;;;9.15;2.25;;;7.00;99.90;;;;;;5034999;28;20041;-67